Port Vila Bauerfield Airport
NVVV : rendu visible

Aérodrome :











RETROUVEZ-NOUS SUR...

 
LOGIN :

S'inscrire | Disclaimer

   EN    FR    IT 

 









Légende :    VFR   VFR Marginal   IFR   IFR Intensif   IFR Très Intensif
Visi : 
Plafond : 
>= 8 km
>= 3000ft
5 à 8 km
1000 à 3000 ft
1500m à 5 km
500 à 1000 ft
800 à 1500m
200 à 500 ft
< 800m
< 200 ft
Symboles :   Orages  Brouillard  Fortes neiges  Fortes précipitations  Vent > 20 kt






- Altitude de l'aérodrome : 70 ft
- Code IATA : VLI


NVVV - Port Vila Bauerfield

DERNIER METAR :
  • 270800Z 11006KT 9999 FEW020 23/21 Q1016

METARs EXPIRÉS :
  • 270700Z 11007KT 9999 FEW020 24/2 Q1016
  • 270600Z 11007KT 9999 FEW020 25/22 Q1015

TAF TAF NVVV
Valide du 27 à 06h jusqu'au 28 à 06h UTC


270430Z 2706/2806 12015KT 9999 SCT020
BECMG 2708/2710 12005KT
FIR NFFF / Océanie



MET'MAP, la Météo Aéronautique d'un coup d'oeil ! - Copyright ORBIFLY Décembre 2007 - Disclaimer

ORBIFLY MET'MAP TEAM :

Programmation & Développement : Alexandra Zaïnal
Sur une idée originale de : Baudouin d'Aumeries
Assistance à la programmation : Marc-Olivier Méhu
Soutien technique & logistique : Manuel Goepfert

Contact : metmap@orbifly.com




SOURCES & CREDITS :

   NOAA       Earth
Advisory